Time;durP1;ratioP1;P1;durP2;ratioP2;P2;SDS_P1;SDS_P2;PMS_P1;PMS_P2;Temp;Humidity;BMP_temperature;BMP_pressure;BME280_temperature;BME280_humidity;BME280_pressure;Samples;Min_cycle;Max_cycle;Signal;HPM_P1;HPM_P2
2023/03/20 00:00:46;;;;;;;5.70;4.67;;;;;;;;;;5033146;28;20210;-30
2023/03/20 00:03:15;;;;;;;5.60;4.97;;;;;;;;;;5036878;28;20217;-28
2023/03/20 00:05:42;;;;;;;6.70;4.67;;;;;;;;;;5049179;28;20266;-27
2023/03/20 00:08:10;;;;;;;7.30;4.60;;;;;;;;;;5039318;28;20230;-28
2023/03/20 00:10:38;;;;;;;5.90;4.53;;;;;;;;;;5031244;28;20781;-29
2023/03/20 00:13:06;;;;;;;6.27;4.27;;;;;;;;;;5050264;28;20202;-29
2023/03/20 00:15:36;;;;;;;5.20;3.83;;;;;;;;;;5042378;28;20209;-28
2023/03/20 00:18:04;;;;;;;5.23;3.87;;;;;;;;;;5029338;28;20258;-30
2023/03/20 00:20:32;;;;;;;5.17;4.17;;;;;;;;;;5029728;28;20199;-29
2023/03/20 00:22:59;;;;;;;6.97;5.17;;;;;;;;;;5029821;28;20247;-28
2023/03/20 00:25:27;;;;;;;6.97;5.87;;;;;;;;;;5036431;28;20273;-27
2023/03/20 00:27:54;;;;;;;7.33;5.67;;;;;;;;;;5049130;28;20218;-27
2023/03/20 00:30:27;;;;;;;7.13;5.93;;;;;;;;;;5034149;28;20214;-29
2023/03/20 00:32:54;;;;;;;5.77;5.07;;;;;;;;;;5037010;28;20234;-27
2023/03/20 00:35:23;;;;;;;6.13;4.73;;;;;;;;;;5029064;28;20214;-29
2023/03/20 00:37:52;;;;;;;5.03;4.53;;;;;;;;;;5028658;28;20230;-26
2023/03/20 00:40:20;;;;;;;5.30;4.50;;;;;;;;;;5035415;28;20206;-30
2023/03/20 00:42:49;;;;;;;6.80;4.90;;;;;;;;;;5034215;28;20224;-28
2023/03/20 00:45:18;;;;;;;7.03;5.80;;;;;;;;;;5038160;28;20225;-30
2023/03/20 00:47:46;;;;;;;6.40;4.70;;;;;;;;;;5042916;28;20244;-30
2023/03/20 00:50:17;;;;;;;6.50;5.90;;;;;;;;;;5043575;28;20202;-27
2023/03/20 00:52:44;;;;;;;6.60;5.70;;;;;;;;;;5043944;28;20214;-29
2023/03/20 00:55:13;;;;;;;7.00;5.97;;;;;;;;;;5049005;28;20212;-29
2023/03/20 00:57:42;;;;;;;6.43;5.37;;;;;;;;;;5050420;28;20233;-27
2023/03/20 01:00:20;;;;;;;5.40;4.90;;;;;;;;;;5041444;28;20218;-30
2023/03/20 01:02:47;;;;;;;5.53;4.53;;;;;;;;;;5037918;28;20209;-28
2023/03/20 01:05:14;;;;;;;4.80;4.40;;;;;;;;;;5037698;28;20210;-28
2023/03/20 01:07:41;;;;;;;5.70;5.07;;;;;;;;;;5030047;28;20222;-27
2023/03/20 01:10:11;;;;;;;5.97;5.10;;;;;;;;;;5036086;28;20214;-26
2023/03/20 01:12:40;;;;;;;6.73;5.33;;;;;;;;;;5039851;28;20234;-29
2023/03/20 01:15:15;;;;;;;6.80;5.63;;;;;;;;;;5036282;28;20202;-28
2023/03/20 01:17:42;;;;;;;8.67;6.10;;;;;;;;;;5048739;28;20232;-27
2023/03/20 01:20:14;;;;;;;8.10;5.37;;;;;;;;;;5037939;28;20207;-27
2023/03/20 01:22:42;;;;;;;5.43;4.90;;;;;;;;;;5036552;28;20213;-28
2023/03/20 01:25:10;;;;;;;6.57;5.87;;;;;;;;;;5043531;28;20319;-30
2023/03/20 01:27:37;;;;;;;6.00;5.40;;;;;;;;;;5028402;28;20222;-27
2023/03/20 01:30:07;;;;;;;6.37;5.37;;;;;;;;;;5027197;28;20206;-29
2023/03/20 01:32:34;;;;;;;6.53;5.50;;;;;;;;;;5030669;28;20270;-28
2023/03/20 01:35:01;;;;;;;6.20;5.40;;;;;;;;;;5046870;28;20202;-29
2023/03/20 01:37:29;;;;;;;6.30;4.80;;;;;;;;;;5036405;28;20314;-28
2023/03/20 01:39:56;;;;;;;7.80;5.60;;;;;;;;;;5027782;28;20294;-28
2023/03/20 01:42:23;;;;;;;7.07;6.37;;;;;;;;;;5032446;28;20207;-30
2023/03/20 01:44:51;;;;;;;5.10;4.60;;;;;;;;;;5033045;28;20202;-29
2023/03/20 01:47:21;;;;;;;6.57;5.87;;;;;;;;;;5040872;28;20280;-29
2023/03/20 01:50:06;;;;;;;6.13;5.53;;;;;;;;;;5035003;28;20206;-30
2023/03/20 01:52:33;;;;;;;7.37;6.13;;;;;;;;;;5025259;28;20203;-29
2023/03/20 01:55:02;;;;;;;5.93;5.33;;;;;;;;;;5027469;28;20207;-32
2023/03/20 01:57:30;;;;;;;6.73;5.47;;;;;;;;;;5045366;28;20225;-31
2023/03/20 02:00:02;;;;;;;8.13;5.63;;;;;;;;;;5038643;28;20198;-29
2023/03/20 02:02:31;;;;;;;6.27;5.67;;;;;;;;;;5036660;28;20210;-28
2023/03/20 02:05:00;;;;;;;5.97;5.23;;;;;;;;;;5034131;28;20202;-29
2023/03/20 02:07:27;;;;;;;6.57;5.40;;;;;;;;;;5026548;28;20222;-29
2023/03/20 02:09:55;;;;;;;6.57;5.87;;;;;;;;;;5031243;28;20204;-28
2023/03/20 02:12:23;;;;;;;6.53;5.47;;;;;;;;;;5038965;28;20221;-27
2023/03/20 02:14:51;;;;;;;6.27;5.20;;;;;;;;;;5033314;28;20198;-30
2023/03/20 02:17:18;;;;;;;7.23;5.60;;;;;;;;;;5041701;28;20222;-29
2023/03/20 02:19:52;;;;;;;5.50;5.00;;;;;;;;;;5048378;28;20209;-29
2023/03/20 02:22:25;;;;;;;5.93;4.57;;;;;;;;;;5049961;28;20193;-28
2023/03/20 02:25:22;;;;;;;4.80;4.30;;;;;;;;;;5042951;28;20684;-28
2023/03/20 02:28:00;;;;;;;4.97;4.07;;;;;;;;;;5047492;28;20224;-27
2023/03/20 02:30:42;;;;;;;6.13;4.67;;;;;;;;;;5038432;28;20206;-27
2023/03/20 02:33:21;;;;;;;6.70;5.30;;;;;;;;;;5041827;28;20274;-27
2023/03/20 02:35:59;;;;;;;5.27;4.50;;;;;;;;;;5027422;28;20199;-30
2023/03/20 02:38:44;;;;;;;5.87;5.13;;;;;;;;;;5032982;28;20226;-29
2023/03/20 02:41:16;;;;;;;4.57;3.83;;;;;;;;;;5029731;28;20255;-29
2023/03/20 02:43:44;;;;;;;4.20;3.80;;;;;;;;;;5024230;28;20199;-31
2023/03/20 02:46:14;;;;;;;4.30;3.90;;;;;;;;;;5032974;28;20222;-26
2023/03/20 02:48:47;;;;;;;4.47;3.87;;;;;;;;;;5044254;28;20205;-27
2023/03/20 02:51:17;;;;;;;4.23;3.83;;;;;;;;;;5029045;28;20195;-29
2023/03/20 02:53:46;;;;;;;3.27;3.07;;;;;;;;;;5025677;28;20222;-27
2023/03/20 02:56:19;;;;;;;3.27;2.83;;;;;;;;;;5038346;28;20213;-29
2023/03/20 02:58:49;;;;;;;3.50;3.20;;;;;;;;;;5043304;28;20228;-29
2023/03/20 03:01:18;;;;;;;4.87;4.03;;;;;;;;;;5029696;28;20220;-26
2023/03/20 03:03:47;;;;;;;4.37;3.43;;;;;;;;;;5042584;28;20198;-27
2023/03/20 03:06:18;;;;;;;2.97;2.73;;;;;;;;;;5026569;28;20313;-29
2023/03/20 03:08:47;;;;;;;3.40;3.10;;;;;;;;;;5039495;28;20206;-29
2023/03/20 03:11:16;;;;;;;3.80;3.07;;;;;;;;;;5046595;28;20506;-27
2023/03/20 03:13:45;;;;;;;2.87;2.67;;;;;;;;;;5024924;28;20210;-28
2023/03/20 03:16:15;;;;;;;3.07;2.40;;;;;;;;;;5037764;28;20289;-26
2023/03/20 03:18:43;;;;;;;3.40;2.60;;;;;;;;;;5043287;28;20202;-29
2023/03/20 03:21:10;;;;;;;2.50;2.30;;;;;;;;;;5026249;28;20202;-27
2023/03/20 03:23:42;;;;;;;2.53;2.33;;;;;;;;;;5036285;28;20206;-26
2023/03/20 03:26:12;;;;;;;2.80;2.50;;;;;;;;;;5031400;28;20257;-30
2023/03/20 03:28:42;;;;;;;2.80;2.43;;;;;;;;;;5024970;28;20195;-27
2023/03/20 03:31:12;;;;;;;3.13;2.53;;;;;;;;;;5034686;28;20217;-29
2023/03/20 03:33:40;;;;;;;3.63;2.57;;;;;;;;;;5028075;28;20214;-31
2023/03/20 03:36:12;;;;;;;3.20;2.53;;;;;;;;;;5046895;28;20202;-28
2023/03/20 03:38:44;;;;;;;3.13;2.83;;;;;;;;;;5036593;28;20199;-29
2023/03/20 03:41:18;;;;;;;4.70;3.10;;;;;;;;;;5032402;28;20240;-29
2023/03/20 03:43:51;;;;;;;3.33;2.63;;;;;;;;;;5031996;28;20202;-29
2023/03/20 03:46:23;;;;;;;3.40;3.10;;;;;;;;;;5044766;28;20214;-29
2023/03/20 03:48:52;;;;;;;4.10;3.47;;;;;;;;;;5046309;28;20209;-28
2023/03/20 03:51:21;;;;;;;4.80;3.90;;;;;;;;;;5046026;28;20206;-27
2023/03/20 03:53:52;;;;;;;5.53;4.13;;;;;;;;;;5035609;28;20213;-26
2023/03/20 03:56:21;;;;;;;5.37;4.40;;;;;;;;;;5025918;28;20210;-27
2023/03/20 03:58:51;;;;;;;3.50;3.20;;;;;;;;;;5036737;28;20209;-28
2023/03/20 04:01:19;;;;;;;3.90;3.10;;;;;;;;;;5047849;28;20218;-28
2023/03/20 04:06:15;;;;;;;7.60;3.87;;;;;;;;;;5028396;28;20231;-28
2023/03/20 04:08:43;;;;;;;5.03;3.80;;;;;;;;;;5034557;28;20209;-25
2023/03/20 04:11:14;;;;;;;5.13;4.33;;;;;;;;;;5020239;28;20204;-31
2023/03/20 04:13:41;;;;;;;4.77;3.83;;;;;;;;;;5006045;28;20208;-27
2023/03/20 04:16:11;;;;;;;7.00;4.10;;;;;;;;;;5009093;28;20195;-30
2023/03/20 04:18:39;;;;;;;7.40;4.10;;;;;;;;;;5008118;28;20208;-30
2023/03/20 04:21:06;;;;;;;5.77;3.57;;;;;;;;;;5014463;28;20218;-28
2023/03/20 04:23:34;;;;;;;4.00;3.40;;;;;;;;;;5029033;28;20213;-28
2023/03/20 04:26:01;;;;;;;5.60;3.20;;;;;;;;;;5024904;28;20235;-28
2023/03/20 04:28:28;;;;;;;3.43;3.13;;;;;;;;;;5009462;28;20228;-28
2023/03/20 04:30:56;;;;;;;2.10;1.90;;;;;;;;;;4997375;28;20207;-30
2023/03/20 04:33:25;;;;;;;1.63;1.53;;;;;;;;;;5021867;28;20206;-28
2023/03/20 04:35:52;;;;;;;2.20;2.00;;;;;;;;;;4990336;28;20270;-28
2023/03/20 04:38:20;;;;;;;1.63;1.53;;;;;;;;;;4999836;28;20744;-26
2023/03/20 04:40:47;;;;;;;1.80;1.70;;;;;;;;;;5007645;28;20198;-29
2023/03/20 04:43:15;;;;;;;1.63;1.53;;;;;;;;;;5025876;28;20218;-27
2023/03/20 04:45:42;;;;;;;2.20;2.10;;;;;;;;;;5002734;28;20207;-28
2023/03/20 04:48:09;;;;;;;1.67;1.57;;;;;;;;;;5023155;28;20233;-29
2023/03/20 04:50:38;;;;;;;2.60;2.40;;;;;;;;;;5010625;28;20199;-28
2023/03/20 04:53:05;;;;;;;2.37;2.10;;;;;;;;;;5000026;28;20208;-26
2023/03/20 04:55:32;;;;;;;2.70;2.10;;;;;;;;;;5013722;28;20210;-28
2023/03/20 04:57:59;;;;;;;2.10;1.90;;;;;;;;;;5015849;28;20223;-30
2023/03/20 05:00:26;;;;;;;2.07;1.50;;;;;;;;;;4996548;28;20208;-28
2023/03/20 05:02:53;;;;;;;1.93;1.77;;;;;;;;;;5013960;28;20207;-28
2023/03/20 05:05:21;;;;;;;1.80;1.70;;;;;;;;;;5028891;28;20225;-28
2023/03/20 05:07:50;;;;;;;1.77;1.60;;;;;;;;;;5008021;28;20316;-30
2023/03/20 05:10:17;;;;;;;1.63;1.53;;;;;;;;;;5004720;28;20242;-29
2023/03/20 05:12:44;;;;;;;1.80;1.70;;;;;;;;;;5016958;28;20212;-26
2023/03/20 05:15:11;;;;;;;2.27;1.87;;;;;;;;;;4994909;28;20216;-28
2023/03/20 05:17:39;;;;;;;1.70;1.60;;;;;;;;;;5011954;28;20710;-27
2023/03/20 05:20:07;;;;;;;2.27;1.80;;;;;;;;;;5028509;28;20202;-26
2023/03/20 05:22:34;;;;;;;2.00;1.77;;;;;;;;;;5021832;28;20218;-27
2023/03/20 05:25:03;;;;;;;1.60;1.50;;;;;;;;;;5009478;28;20203;-27
2023/03/20 05:27:30;;;;;;;1.87;1.73;;;;;;;;;;5025999;28;20231;-28
2023/03/20 05:29:57;;;;;;;1.73;1.60;;;;;;;;;;5008084;28;20203;-28
2023/03/20 05:32:24;;;;;;;1.80;1.70;;;;;;;;;;5016334;28;20210;-30
2023/03/20 05:34:51;;;;;;;2.00;1.80;;;;;;;;;;5008405;28;20211;-29
2023/03/20 05:37:18;;;;;;;1.60;1.50;;;;;;;;;;5004059;28;20226;-29
2023/03/20 05:39:46;;;;;;;2.07;1.87;;;;;;;;;;5011253;28;20203;-29
2023/03/20 05:42:14;;;;;;;1.80;1.70;;;;;;;;;;5020606;28;20194;-27
2023/03/20 05:44:41;;;;;;;2.10;1.97;;;;;;;;;;5011580;28;20211;-26
2023/03/20 05:47:08;;;;;;;2.63;2.43;;;;;;;;;;5008841;28;20242;-29
2023/03/20 05:49:35;;;;;;;2.00;1.70;;;;;;;;;;5017293;28;20319;-29
2023/03/20 05:52:02;;;;;;;1.50;1.40;;;;;;;;;;5010451;28;20218;-30
2023/03/20 05:54:30;;;;;;;2.73;1.73;;;;;;;;;;5000848;28;20441;-25
2023/03/20 05:56:57;;;;;;;2.70;1.80;;;;;;;;;;5023505;28;20254;-27
2023/03/20 05:59:26;;;;;;;3.57;1.60;;;;;;;;;;5016381;28;20210;-29
2023/03/20 06:01:53;;;;;;;1.80;1.60;;;;;;;;;;5007684;28;20229;-29
2023/03/20 06:04:20;;;;;;;2.77;1.80;;;;;;;;;;5021213;28;20218;-26
2023/03/20 06:06:47;;;;;;;1.73;1.63;;;;;;;;;;5027810;28;20423;-31
2023/03/20 06:09:14;;;;;;;1.70;1.60;;;;;;;;;;5012217;28;20204;-30
2023/03/20 06:11:41;;;;;;;1.93;1.70;;;;;;;;;;5012425;28;20294;-28
2023/03/20 06:14:08;;;;;;;1.80;1.60;;;;;;;;;;5019074;28;20211;-26
2023/03/20 06:16:37;;;;;;;2.00;1.90;;;;;;;;;;4997084;28;20243;-30
2023/03/20 06:19:04;;;;;;;2.00;1.80;;;;;;;;;;5010180;28;20199;-28
2023/03/20 06:21:31;;;;;;;2.27;1.80;;;;;;;;;;5010065;28;20211;-27
2023/03/20 06:23:59;;;;;;;2.47;1.90;;;;;;;;;;4998784;28;20207;-32
2023/03/20 06:26:26;;;;;;;2.20;2.00;;;;;;;;;;5018006;28;20257;-26
2023/03/20 06:29:03;;;;;;;3.83;1.80;;;;;;;;;;5010134;28;20211;-28
2023/03/20 06:31:30;;;;;;;1.83;1.60;;;;;;;;;;5010861;28;20207;-27
2023/03/20 06:33:59;;;;;;;1.80;1.70;;;;;;;;;;5011330;28;20210;-30
2023/03/20 06:36:27;;;;;;;1.80;1.70;;;;;;;;;;5005649;28;20223;-27
2023/03/20 06:38:56;;;;;;;2.27;1.70;;;;;;;;;;4999068;28;20199;-27
2023/03/20 06:41:23;;;;;;;1.50;1.40;;;;;;;;;;5014432;28;20207;-26
2023/03/20 06:43:50;;;;;;;1.93;1.40;;;;;;;;;;5006908;28;20489;-27
2023/03/20 06:46:17;;;;;;;1.40;1.30;;;;;;;;;;5010619;28;20207;-27
2023/03/20 06:49:20;;;;;;;1.90;1.60;;;;;;;;;;5021425;28;20198;-26
2023/03/20 06:51:49;;;;;;;1.70;1.60;;;;;;;;;;5031898;28;20198;-28
2023/03/20 06:54:16;;;;;;;1.80;1.70;;;;;;;;;;5019016;28;20219;-27
2023/03/20 06:56:43;;;;;;;2.40;1.90;;;;;;;;;;5020529;28;20238;-26
2023/03/20 06:59:10;;;;;;;1.63;1.53;;;;;;;;;;5012178;28;20216;-29
2023/03/20 07:01:38;;;;;;;1.23;1.17;;;;;;;;;;5004288;28;20210;-27
2023/03/20 07:04:05;;;;;;;2.00;1.57;;;;;;;;;;5016698;28;20213;-28
2023/03/20 07:06:32;;;;;;;1.80;1.67;;;;;;;;;;5030829;28;20226;-27
2023/03/20 07:09:01;;;;;;;1.70;1.60;;;;;;;;;;5006033;28;20218;-29
2023/03/20 07:11:29;;;;;;;2.90;1.63;;;;;;;;;;5008774;28;20230;-29
2023/03/20 07:13:56;;;;;;;1.40;1.30;;;;;;;;;;5007216;28;20215;-28
2023/03/20 07:16:23;;;;;;;1.57;1.40;;;;;;;;;;4994581;28;20278;-28
2023/03/20 07:18:50;;;;;;;2.57;1.47;;;;;;;;;;5009407;28;20197;-32
2023/03/20 07:21:19;;;;;;;1.47;1.27;;;;;;;;;;5009915;28;20416;-29
2023/03/20 07:23:46;;;;;;;2.90;1.67;;;;;;;;;;5002207;28;20257;-28
2023/03/20 07:26:15;;;;;;;3.07;2.00;;;;;;;;;;5015386;28;20207;-29
2023/03/20 07:28:42;;;;;;;2.03;1.70;;;;;;;;;;5025731;28;20257;-28
2023/03/20 07:31:11;;;;;;;1.73;1.57;;;;;;;;;;4997631;28;20207;-28
2023/03/20 07:33:39;;;;;;;1.70;1.60;;;;;;;;;;5029007;28;20203;-29
2023/03/20 07:36:06;;;;;;;1.43;1.30;;;;;;;;;;5010925;28;20203;-28
2023/03/20 07:38:46;;;;;;;1.53;1.30;;;;;;;;;;5005000;28;20196;-29
2023/03/20 07:41:15;;;;;;;1.40;1.30;;;;;;;;;;5014134;28;20201;-28
2023/03/20 07:43:42;;;;;;;2.07;1.27;;;;;;;;;;5014521;28;20290;-27
2023/03/20 07:46:09;;;;;;;1.57;1.20;;;;;;;;;;5002515;28;20204;-29
2023/03/20 07:48:36;;;;;;;1.30;1.20;;;;;;;;;;5018080;28;20227;-29
2023/03/20 07:51:04;;;;;;;1.57;1.30;;;;;;;;;;5030656;28;20210;-29
2023/03/20 07:53:31;;;;;;;1.10;1.10;;;;;;;;;;5011005;28;20207;-30
2023/03/20 07:55:58;;;;;;;2.50;1.40;;;;;;;;;;5022007;28;20302;-28
2023/03/20 07:58:27;;;;;;;3.20;1.30;;;;;;;;;;5012780;28;20287;-28
2023/03/20 08:00:54;;;;;;;1.50;1.40;;;;;;;;;;4998039;28;20230;-29
2023/03/20 08:03:21;;;;;;;1.90;1.40;;;;;;;;;;4995553;28;20222;-30
2023/03/20 08:05:48;;;;;;;1.30;1.07;;;;;;;;;;5017371;28;20207;-27
2023/03/20 08:08:16;;;;;;;1.83;1.53;;;;;;;;;;5006074;28;20319;-28
2023/03/20 08:10:43;;;;;;;1.40;1.30;;;;;;;;;;5014477;28;20196;-30
2023/03/20 08:13:10;;;;;;;1.43;1.30;;;;;;;;;;5002798;28;20215;-26
2023/03/20 08:15:39;;;;;;;1.40;1.30;;;;;;;;;;5004889;28;20223;-30
2023/03/20 08:18:10;;;;;;;1.77;1.07;;;;;;;;;;5016856;28;20222;-30
2023/03/20 08:20:38;;;;;;;1.27;1.23;;;;;;;;;;5016247;28;20205;-28
2023/03/20 08:23:06;;;;;;;1.03;1.00;;;;;;;;;;5010657;28;20200;-29
2023/03/20 08:25:33;;;;;;;2.33;1.07;;;;;;;;;;5015452;28;20212;-29
2023/03/20 08:28:01;;;;;;;1.30;1.20;;;;;;;;;;5034503;28;20227;-26
2023/03/20 08:30:28;;;;;;;0.97;0.97;;;;;;;;;;5015784;28;20213;-28
2023/03/20 08:32:57;;;;;;;1.13;0.90;;;;;;;;;;5016202;28;20213;-28
2023/03/20 08:35:25;;;;;;;3.30;1.20;;;;;;;;;;5031030;28;20213;-28
2023/03/20 08:37:52;;;;;;;1.10;1.00;;;;;;;;;;5028918;28;20223;-26
2023/03/20 08:40:19;;;;;;;0.83;0.83;;;;;;;;;;5009815;28;20207;-26
2023/03/20 08:42:46;;;;;;;1.07;0.97;;;;;;;;;;5025464;28;20198;-29
2023/03/20 08:45:13;;;;;;;0.70;0.70;;;;;;;;;;5011638;28;20214;-29
2023/03/20 08:47:40;;;;;;;1.07;0.80;;;;;;;;;;5018344;28;20223;-28
2023/03/20 08:50:10;;;;;;;1.03;0.90;;;;;;;;;;5014422;28;20211;-30
2023/03/20 08:52:37;;;;;;;1.10;0.80;;;;;;;;;;5005144;28;20203;-28
2023/03/20 08:55:05;;;;;;;0.70;0.70;;;;;;;;;;5006641;28;20211;-26
2023/03/20 08:57:32;;;;;;;1.43;0.70;;;;;;;;;;5011522;28;20224;-28
2023/03/20 09:00:00;;;;;;;0.67;0.67;;;;;;;;;;5009432;28;20218;-30
2023/03/20 09:02:27;;;;;;;1.53;1.13;;;;;;;;;;5015457;28;20207;-26
2023/03/20 09:04:54;;;;;;;0.77;0.70;;;;;;;;;;5024591;28;20213;-27
2023/03/20 09:07:23;;;;;;;1.97;0.80;;;;;;;;;;5004698;28;20251;-28
2023/03/20 09:09:50;;;;;;;1.53;0.90;;;;;;;;;;5009929;28;20232;-27
2023/03/20 09:12:17;;;;;;;0.70;0.70;;;;;;;;;;5013807;28;20211;-29
2023/03/20 09:14:47;;;;;;;2.13;0.90;;;;;;;;;;5007496;28;20260;-28
2023/03/20 09:17:16;;;;;;;0.83;0.83;;;;;;;;;;5007250;28;20259;-28
2023/03/20 09:19:44;;;;;;;1.40;0.90;;;;;;;;;;5013351;28;20191;-29
2023/03/20 09:22:12;;;;;;;0.80;0.80;;;;;;;;;;5006563;28;20201;-30
2023/03/20 09:25:01;;;;;;;0.80;0.80;;;;;;;;;;5014693;28;20235;-30
2023/03/20 09:27:30;;;;;;;0.80;0.80;;;;;;;;;;5009199;28;20226;-27
2023/03/20 09:29:57;;;;;;;0.67;0.67;;;;;;;;;;5002037;28;20218;-27
2023/03/20 09:32:24;;;;;;;1.33;0.77;;;;;;;;;;5016918;28;20258;-30
2023/03/20 09:34:51;;;;;;;1.47;0.80;;;;;;;;;;5015110;28;20206;-27
2023/03/20 09:37:18;;;;;;;0.80;0.80;;;;;;;;;;5013177;28;20232;-30
2023/03/20 09:39:45;;;;;;;0.70;0.70;;;;;;;;;;5008024;28;20200;-29
2023/03/20 09:42:22;;;;;;;0.67;0.67;;;;;;;;;;5011365;28;20204;-29
2023/03/20 09:44:54;;;;;;;0.70;0.70;;;;;;;;;;5006068;28;20202;-26
2023/03/20 09:47:26;;;;;;;0.70;0.70;;;;;;;;;;5009674;28;20231;-29
2023/03/20 09:49:57;;;;;;;4.70;0.87;;;;;;;;;;5014129;28;20203;-25
2023/03/20 09:52:27;;;;;;;0.80;0.80;;;;;;;;;;5005274;28;20210;-29
2023/03/20 09:54:55;;;;;;;2.07;1.97;;;;;;;;;;5002529;28;20241;-30
2023/03/20 09:57:24;;;;;;;1.30;1.20;;;;;;;;;;5011669;28;20237;-29
2023/03/20 09:59:56;;;;;;;3.53;0.80;;;;;;;;;;5005612;28;20203;-27
2023/03/20 10:02:26;;;;;;;1.17;0.70;;;;;;;;;;5013318;28;20213;-29
2023/03/20 10:04:53;;;;;;;2.23;2.13;;;;;;;;;;5012293;28;20226;-27
2023/03/20 10:07:21;;;;;;;27.60;16.80;;;;;;;;;;5011089;28;20219;-31
2023/03/20 10:09:48;;;;;;;1.50;0.90;;;;;;;;;;5005997;28;20204;-30
2023/03/20 10:12:25;;;;;;;1.97;1.07;;;;;;;;;;5013130;28;20209;-28
2023/03/20 10:14:59;;;;;;;14.00;10.67;;;;;;;;;;5010539;28;20199;-27
2023/03/20 10:17:35;;;;;;;8.57;5.63;;;;;;;;;;5007919;28;20224;-27
2023/03/20 10:20:08;;;;;;;12.47;7.47;;;;;;;;;;5010363;28;20203;-27
2023/03/20 10:22:36;;;;;;;2.80;0.90;;;;;;;;;;5007857;28;20196;-28
2023/03/20 10:25:06;;;;;;;5.33;3.70;;;;;;;;;;5008812;28;20239;-28
2023/03/20 10:27:35;;;;;;;3.43;2.00;;;;;;;;;;5019811;28;20226;-27
2023/03/20 10:30:19;;;;;;;2.37;1.10;;;;;;;;;;5008666;28;20204;-29
2023/03/20 10:32:48;;;;;;;10.60;4.90;;;;;;;;;;5020278;28;20207;-26
2023/03/20 10:35:21;;;;;;;3.53;2.70;;;;;;;;;;5010505;28;20231;-32
2023/03/20 10:37:54;;;;;;;1.33;1.23;;;;;;;;;;5002738;28;20313;-29
2023/03/20 10:40:25;;;;;;;19.93;17.70;;;;;;;;;;5008587;28;20216;-28
2023/03/20 10:42:53;;;;;;;1.10;1.10;;;;;;;;;;4997409;28;20199;-30
2023/03/20 10:45:27;;;;;;;0.97;0.90;;;;;;;;;;5001295;28;20314;-28
2023/03/20 10:47:56;;;;;;;0.60;0.60;;;;;;;;;;5017877;28;20226;-29
2023/03/20 10:50:25;;;;;;;1.93;0.70;;;;;;;;;;5019046;28;20211;-27
2023/03/20 10:52:54;;;;;;;2.10;0.60;;;;;;;;;;5009983;28;20204;-27
2023/03/20 10:55:22;;;;;;;0.60;0.60;;;;;;;;;;5008484;28;20238;-29
2023/03/20 10:57:53;;;;;;;0.67;0.67;;;;;;;;;;5012787;28;20226;-28
2023/03/20 11:00:22;;;;;;;0.90;0.60;;;;;;;;;;5006714;28;20203;-27
2023/03/20 11:02:50;;;;;;;0.50;0.50;;;;;;;;;;5008453;28;20213;-28
2023/03/20 11:05:23;;;;;;;1.40;0.70;;;;;;;;;;5004171;28;20220;-29
2023/03/20 11:07:53;;;;;;;0.60;0.60;;;;;;;;;;4998137;28;20251;-28
2023/03/20 11:10:20;;;;;;;0.80;0.70;;;;;;;;;;5010454;28;20203;-28
2023/03/20 11:12:51;;;;;;;1.90;1.43;;;;;;;;;;5018863;28;20203;-27
2023/03/20 11:15:23;;;;;;;0.93;0.93;;;;;;;;;;5010282;28;20203;-28
2023/03/20 11:17:55;;;;;;;0.77;0.77;;;;;;;;;;5028235;28;20229;-28
2023/03/20 11:20:23;;;;;;;2.10;0.87;;;;;;;;;;5015295;28;20218;-30
2023/03/20 11:22:50;;;;;;;0.80;0.80;;;;;;;;;;5010183;28;20209;-27
2023/03/20 11:25:25;;;;;;;0.80;0.80;;;;;;;;;;5013996;28;20225;-29
2023/03/20 11:27:55;;;;;;;0.70;0.60;;;;;;;;;;5021377;28;20218;-27
2023/03/20 11:30:22;;;;;;;0.77;0.60;;;;;;;;;;5018946;28;20210;-27
2023/03/20 11:32:50;;;;;;;3.13;0.83;;;;;;;;;;5017570;28;20217;-28
2023/03/20 11:35:22;;;;;;;1.27;0.60;;;;;;;;;;5008608;28;20219;-30
2023/03/20 11:37:50;;;;;;;0.60;0.60;;;;;;;;;;5000256;28;20223;-29
2023/03/20 11:40:22;;;;;;;0.50;0.50;;;;;;;;;;5007910;28;20203;-29
2023/03/20 11:42:53;;;;;;;2.27;0.70;;;;;;;;;;5024161;28;20199;-27
2023/03/20 11:45:20;;;;;;;0.47;0.47;;;;;;;;;;5007473;28;20203;-27
2023/03/20 11:47:50;;;;;;;0.60;0.57;;;;;;;;;;5011634;28;20223;-28
2023/03/20 11:50:27;;;;;;;0.60;0.60;;;;;;;;;;5024611;28;20213;-30
2023/03/20 11:53:02;;;;;;;1.03;0.50;;;;;;;;;;5006438;28;20207;-26
2023/03/20 11:55:34;;;;;;;0.60;0.60;;;;;;;;;;5007919;28;20290;-29
2023/03/20 11:58:05;;;;;;;0.87;0.80;;;;;;;;;;4999946;28;20234;-27
2023/03/20 12:05:38;;;;;;;0.60;0.60;;;;;;;;;;5049458;28;20214;-30
2023/03/20 12:08:09;;;;;;;2.30;0.60;;;;;;;;;;5052546;28;20232;-28
2023/03/20 12:10:39;;;;;;;0.50;0.50;;;;;;;;;;5040166;28;20206;-28
2023/03/20 12:13:11;;;;;;;0.77;0.57;;;;;;;;;;5048192;28;20213;-29
2023/03/20 12:15:41;;;;;;;0.80;0.80;;;;;;;;;;5042034;28;20202;-29
2023/03/20 12:18:12;;;;;;;1.13;0.50;;;;;;;;;;5053521;28;20221;-31
2023/03/20 12:20:45;;;;;;;0.60;0.60;;;;;;;;;;5053800;28;20252;-29
2023/03/20 12:23:13;;;;;;;0.80;0.80;;;;;;;;;;5048079;28;20255;-30
2023/03/20 12:25:43;;;;;;;0.80;0.80;;;;;;;;;;5046271;28;20202;-27
2023/03/20 12:28:13;;;;;;;0.60;0.60;;;;;;;;;;5045400;28;20226;-27
2023/03/20 12:30:49;;;;;;;1.13;0.90;;;;;;;;;;5045838;28;20205;-28
2023/03/20 12:33:19;;;;;;;0.97;0.90;;;;;;;;;;5048343;28;20202;-28
2023/03/20 12:35:49;;;;;;;2.77;1.30;;;;;;;;;;5049568;28;20203;-28
2023/03/20 12:38:21;;;;;;;1.30;1.20;;;;;;;;;;5042501;28;20226;-29
2023/03/20 12:40:51;;;;;;;1.07;0.93;;;;;;;;;;5051438;28;20206;-29
2023/03/20 12:43:21;;;;;;;1.20;1.10;;;;;;;;;;5050906;28;20206;-30
2023/03/20 12:45:51;;;;;;;1.53;1.10;;;;;;;;;;5038880;28;20198;-26
2023/03/20 12:48:25;;;;;;;1.10;1.10;;;;;;;;;;5049715;28;20222;-28
2023/03/20 12:50:56;;;;;;;2.43;1.23;;;;;;;;;;5054251;28;20199;-29
2023/03/20 12:53:30;;;;;;;1.13;1.03;;;;;;;;;;5051031;28;20203;-30
2023/03/20 12:56:02;;;;;;;1.30;1.20;;;;;;;;;;5040727;28;20209;-28
2023/03/20 12:58:34;;;;;;;0.93;0.93;;;;;;;;;;5046036;28;20233;-29
2023/03/20 13:01:04;;;;;;;1.00;1.00;;;;;;;;;;5049951;28;20206;-28
2023/03/20 13:03:46;;;;;;;1.30;1.20;;;;;;;;;;5053351;28;20238;-28
2023/03/20 13:06:16;;;;;;;1.80;1.40;;;;;;;;;;5048495;28;20200;-27
2023/03/20 13:09:00;;;;;;;1.30;1.20;;;;;;;;;;5046376;28;21336;-28
2023/03/20 13:11:30;;;;;;;1.60;1.20;;;;;;;;;;5051560;28;20210;-29
2023/03/20 13:13:59;;;;;;;1.33;1.23;;;;;;;;;;5050866;28;20208;-27
2023/03/20 13:16:31;;;;;;;1.67;1.43;;;;;;;;;;5043033;28;20222;-27
2023/03/20 13:19:01;;;;;;;1.00;1.00;;;;;;;;;;5049392;28;20198;-29
2023/03/20 13:21:33;;;;;;;1.40;1.23;;;;;;;;;;5051516;28;20194;-29
2023/03/20 13:24:04;;;;;;;1.13;1.13;;;;;;;;;;5046700;28;20261;-30
2023/03/20 13:26:36;;;;;;;1.30;1.20;;;;;;;;;;5050401;28;20230;-27
2023/03/20 13:29:07;;;;;;;1.07;1.00;;;;;;;;;;5041563;28;20232;-30
2023/03/20 13:31:39;;;;;;;1.00;0.90;;;;;;;;;;5045650;28;20202;-30
2023/03/20 13:34:13;;;;;;;1.43;1.00;;;;;;;;;;5050800;28;20216;-27
2023/03/20 13:36:47;;;;;;;0.70;0.70;;;;;;;;;;5044621;28;20367;-30
2023/03/20 13:39:16;;;;;;;2.93;0.80;;;;;;;;;;5041994;28;20209;-29
2023/03/20 13:41:44;;;;;;;1.10;1.03;;;;;;;;;;5048047;28;20236;-29
2023/03/20 13:44:14;;;;;;;0.80;0.80;;;;;;;;;;5028868;28;20204;-30
2023/03/20 13:46:44;;;;;;;1.00;0.80;;;;;;;;;;5040499;28;20227;-28
2023/03/20 13:49:15;;;;;;;3.90;1.07;;;;;;;;;;5046479;28;20211;-27
2023/03/20 13:51:48;;;;;;;1.57;1.17;;;;;;;;;;5046790;28;20198;-33
2023/03/20 13:54:19;;;;;;;1.53;1.20;;;;;;;;;;5039109;28;20207;-30
2023/03/20 13:56:54;;;;;;;0.93;0.93;;;;;;;;;;5046644;28;20314;-29
2023/03/20 13:59:40;;;;;;;1.50;1.40;;;;;;;;;;5041279;28;20208;-30
2023/03/20 14:02:16;;;;;;;1.23;1.13;;;;;;;;;;5045289;28;20215;-28
2023/03/20 14:04:44;;;;;;;1.30;1.20;;;;;;;;;;5047645;28;20246;-30
2023/03/20 14:07:26;;;;;;;0.87;0.87;;;;;;;;;;5045151;28;20214;-27
2023/03/20 14:09:56;;;;;;;1.10;1.00;;;;;;;;;;5043349;28;20229;-29
2023/03/20 14:12:25;;;;;;;0.90;0.90;;;;;;;;;;5044673;28;20213;-32
2023/03/20 14:14:54;;;;;;;0.93;0.90;;;;;;;;;;5036464;28;20209;-27
2023/03/20 14:17:22;;;;;;;0.80;0.80;;;;;;;;;;5045245;28;20222;-30
2023/03/20 14:19:50;;;;;;;1.30;1.20;;;;;;;;;;5048296;28;20617;-29
2023/03/20 14:22:18;;;;;;;1.13;0.93;;;;;;;;;;5048339;28;20198;-30
2023/03/20 14:24:49;;;;;;;0.80;0.80;;;;;;;;;;5042444;28;20202;-29
2023/03/20 14:27:19;;;;;;;1.77;1.10;;;;;;;;;;5044722;28;20217;-30
2023/03/20 14:29:46;;;;;;;2.10;1.20;;;;;;;;;;5040292;28;20319;-28
2023/03/20 14:32:30;;;;;;;2.10;1.03;;;;;;;;;;5043019;28;20207;-27
2023/03/20 14:35:00;;;;;;;0.87;0.80;;;;;;;;;;5046464;28;20224;-31
2023/03/20 14:37:29;;;;;;;0.87;0.87;;;;;;;;;;5043102;28;20226;-30
2023/03/20 14:40:01;;;;;;;1.07;0.97;;;;;;;;;;5043305;28;20296;-29
2023/03/20 14:42:36;;;;;;;2.57;1.10;;;;;;;;;;5038472;28;20214;-29
2023/03/20 14:45:19;;;;;;;1.63;0.90;;;;;;;;;;5040218;28;20214;-30
2023/03/20 14:47:49;;;;;;;0.70;0.70;;;;;;;;;;5045331;28;20225;-28
2023/03/20 14:50:22;;;;;;;2.03;1.20;;;;;;;;;;5043402;28;20238;-29
2023/03/20 14:53:00;;;;;;;0.70;0.70;;;;;;;;;;5043461;28;20212;-33
2023/03/20 14:55:32;;;;;;;1.10;0.93;;;;;;;;;;5044717;28;20210;-27
2023/03/20 14:58:04;;;;;;;1.13;0.97;;;;;;;;;;5043684;28;20230;-27
2023/03/20 15:00:34;;;;;;;1.00;0.90;;;;;;;;;;5039038;28;20313;-29
2023/03/20 15:03:05;;;;;;;1.00;0.90;;;;;;;;;;5044437;28;20220;-30
2023/03/20 15:05:33;;;;;;;1.37;1.10;;;;;;;;;;5045724;28;20212;-28